createdAt,value
2022-11-01T00:06:45.039Z,8.90
2022-11-01T00:16:50.230Z,8.48
2022-11-01T00:26:53.254Z,9.43
2022-11-01T00:36:57.644Z,10.30
2022-11-01T00:47:00.615Z,8.38
2022-11-01T00:57:05.068Z,8.60
2022-11-01T01:07:08.159Z,7.53
2022-11-01T01:17:12.503Z,7.85
2022-11-01T01:27:16.098Z,7.90
2022-11-01T01:37:21.226Z,7.82
2022-11-01T01:47:26.861Z,8.43
2022-11-01T01:57:31.523Z,7.65
2022-11-01T02:07:34.574Z,8.15
2022-11-01T02:17:48.581Z,7.90
2022-11-01T02:28:09.510Z,8.20
2022-11-01T02:38:20.997Z,7.45
2022-11-01T02:48:26.452Z,8.13
2022-11-01T02:58:31.970Z,8.40
2022-11-01T03:08:39.102Z,7.35
2022-11-01T03:18:54.911Z,4.97
2022-11-01T03:29:02.348Z,3.20
2022-11-01T03:39:10.967Z,2.65
2022-11-01T03:49:18.072Z,2.67
2022-11-01T03:59:23.239Z,2.50
2022-11-01T04:09:26.263Z,1.98
2022-11-01T04:19:48.197Z,2.22
2022-11-01T04:29:51.206Z,2.58
2022-11-01T04:39:55.531Z,2.78
2022-11-01T04:49:58.596Z,3.20
2022-11-01T05:00:03.068Z,3.40
2022-11-01T05:10:07.701Z,3.65
2022-11-01T05:20:12.840Z,2.88
2022-11-01T05:30:15.983Z,2.70
2022-11-01T05:40:20.354Z,2.20
2022-11-01T05:50:26.228Z,2.15
2022-11-01T06:00:30.632Z,2.85
2022-11-01T06:10:34.142Z,2.50
2022-11-01T06:20:38.736Z,2.65
2022-11-01T06:30:43.921Z,3.10
2022-11-01T06:40:49.152Z,2.80
2022-11-01T06:50:53.777Z,3.40
2022-11-01T07:00:58.325Z,3.38
2022-11-01T07:11:01.578Z,3.35
2022-11-01T07:21:06.386Z,3.42
2022-11-01T07:31:09.608Z,3.60
2022-11-01T07:41:13.954Z,3.45
2022-11-01T07:51:17.042Z,3.47
2022-11-01T08:01:21.526Z,3.85
2022-11-01T08:11:24.593Z,3.97
2022-11-01T08:21:28.940Z,3.88
2022-11-01T08:31:31.953Z,3.85
2022-11-01T08:41:37.424Z,4.55
2022-11-01T08:51:41.084Z,3.17
2022-11-01T09:01:45.524Z,3.85
2022-11-01T09:11:48.545Z,3.58
2022-11-01T09:21:52.936Z,3.90
2022-11-01T09:31:56.148Z,3.92
2022-11-01T09:42:04.695Z,3.70
2022-11-01T09:52:08.414Z,3.20
2022-11-01T10:02:50.660Z,3.25
2022-11-01T10:13:09.581Z,3.30
2022-11-01T10:23:16.838Z,3.10
2022-11-01T10:33:28.840Z,3.20
2022-11-01T10:43:36.676Z,2.45
2022-11-01T10:53:45.421Z,2.80
2022-11-01T11:03:50.550Z,3.05
2022-11-01T11:13:57.176Z,2.67
2022-11-01T11:24:00.215Z,2.83
2022-11-01T11:34:23.513Z,2.55
2022-11-01T11:44:40.639Z,2.75
2022-11-01T11:54:45.408Z,1.95
2022-11-01T12:04:53.317Z,2.25
2022-11-01T12:14:59.154Z,2.83
2022-11-01T12:25:06.169Z,2.03
2022-11-01T12:35:21.992Z,1.67
2022-11-01T12:45:30.959Z,1.80
2022-11-01T12:55:37.401Z,1.90
2022-11-01T13:05:51.011Z,1.67
2022-11-01T13:16:04.265Z,1.92
2022-11-01T13:26:14.395Z,1.60
2022-11-01T13:36:30.276Z,1.80
2022-11-01T13:46:57.767Z,1.70
2022-11-01T13:57:10.417Z,2.08
2022-11-01T14:07:17.983Z,1.77
2022-11-01T14:18:07.388Z,1.85
2022-11-01T14:28:22.418Z,1.77
2022-11-01T14:38:31.828Z,2.15
2022-11-01T14:48:41.082Z,1.60
2022-11-01T14:58:46.204Z,1.73
2022-11-01T15:08:49.179Z,1.60
2022-11-01T15:18:56.781Z,1.80
2022-11-01T15:29:01.994Z,1.70
2022-11-01T15:39:19.216Z,1.92
2022-11-01T15:49:26.580Z,1.48
2022-11-01T15:59:35.070Z,1.48
2022-11-01T16:09:41.317Z,1.80
2022-11-01T16:19:48.303Z,1.50
2022-11-01T16:29:52.860Z,2.25
2022-11-01T16:39:59.003Z,2.20
2022-11-01T16:50:02.168Z,2.45
2022-11-01T17:00:13.119Z,2.58
2022-11-01T17:10:19.122Z,2.50
2022-11-01T17:20:28.657Z,3.50
2022-11-01T17:30:32.375Z,3.25
2022-11-01T17:40:36.816Z,3.28
2022-11-01T17:50:40.406Z,3.15
2022-11-01T18:00:44.913Z,3.58
2022-11-01T18:10:57.185Z,3.28
2022-11-01T18:21:13.021Z,3.65
2022-11-01T18:31:23.504Z,6.15
2022-11-01T18:41:27.909Z,4.43
2022-11-01T18:51:32.352Z,3.80
2022-11-01T19:01:37.781Z,3.83
2022-11-01T19:11:40.830Z,4.05
2022-11-01T19:21:45.771Z,4.78
2022-11-01T19:31:51.301Z,4.90
2022-11-01T19:42:00.054Z,4.57
2022-11-01T19:52:23.056Z,5.13
2022-11-01T20:02:27.532Z,5.15
2022-11-01T20:12:30.743Z,7.63
2022-11-01T20:22:35.224Z,6.47
2022-11-01T20:32:38.473Z,5.15
2022-11-01T20:42:42.841Z,6.05
2022-11-01T20:52:46.041Z,6.20
2022-11-01T21:02:50.879Z,26.58
2022-11-01T21:12:54.325Z,9.68
2022-11-01T21:23:01.945Z,7.10
2022-11-01T21:33:26.177Z,7.32
2022-11-01T21:43:35.536Z,5.70
2022-11-01T21:53:38.544Z,4.38
2022-11-01T22:03:42.909Z,4.60
2022-11-01T22:13:45.910Z,4.38
2022-11-01T22:23:50.235Z,5.93
2022-11-01T22:33:54.495Z,5.60
2022-11-01T22:44:01.174Z,5.63
2022-11-01T22:54:08.544Z,5.82
2022-11-01T23:04:23.354Z,6.75
2022-11-01T23:14:39.216Z,5.75
2022-11-01T23:24:43.613Z,6.18
2022-11-01T23:34:47.271Z,6.28
2022-11-01T23:44:54.718Z,5.15
2022-11-01T23:54:58.751Z,5.80
